Time;durP1;ratioP1;P1;durP2;ratioP2;P2;SDS_P1;SDS_P2;PMS_P1;PMS_P2;Temp;Humidity;BMP_temperature;BMP_pressure;BME280_temperature;BME280_humidity;BME280_pressure;Samples;Min_cycle;Max_cycle;Signal;HPM_P1;HPM_P2
2023/05/28 00:00:56;;;;;;;11.88;4.88;;;;;;;13.54;100.00;101682.38;4995972;28;20099;-78
2023/05/28 00:03:23;;;;;;;14.60;4.70;;;;;;;13.53;100.00;101673.25;4966277;28;20054;-77
2023/05/28 00:05:49;;;;;;;12.80;5.38;;;;;;;13.56;100.00;101689.53;4980338;28;20035;-79
2023/05/28 00:08:15;;;;;;;12.43;5.55;;;;;;;13.49;100.00;101673.59;4965551;28;20033;-78
2023/05/28 00:10:41;;;;;;;12.18;5.25;;;;;;;13.48;100.00;101682.84;4980809;28;20055;-79
2023/05/28 00:13:07;;;;;;;10.85;5.10;;;;;;;13.37;100.00;101678.19;4997408;28;20035;-78
2023/05/28 00:15:32;;;;;;;17.75;5.38;;;;;;;13.39;100.00;101674.31;4962945;28;20019;-78
2023/05/28 00:17:58;;;;;;;12.02;5.50;;;;;;;13.26;100.00;101680.88;4978981;28;20019;-77
2023/05/28 00:20:25;;;;;;;14.85;5.85;;;;;;;13.20;100.00;101672.09;4981219;28;20022;-78
2023/05/28 00:22:51;;;;;;;15.30;5.50;;;;;;;13.19;100.00;101670.34;4996934;28;20041;-78
2023/05/28 00:25:16;;;;;;;13.32;5.07;;;;;;;13.25;100.00;101669.00;4995809;28;20046;-78
2023/05/28 00:27:42;;;;;;;12.27;4.47;;;;;;;13.32;100.00;101670.31;4995085;28;20030;-78
2023/05/28 00:30:08;;;;;;;16.63;5.43;;;;;;;13.17;100.00;101663.22;4963421;28;20054;-77
2023/05/28 00:32:33;;;;;;;12.30;4.95;;;;;;;13.21;100.00;101667.47;4996965;28;20027;-77
2023/05/28 00:34:59;;;;;;;12.57;5.28;;;;;;;12.97;100.00;101668.38;4997324;28;20026;-78
2023/05/28 00:37:24;;;;;;;10.52;4.88;;;;;;;12.86;100.00;101671.94;4982383;28;20039;-78
2023/05/28 00:39:50;;;;;;;13.45;5.53;;;;;;;12.92;100.00;101661.47;4994100;28;20062;-78
2023/05/28 00:42:15;;;;;;;14.30;4.90;;;;;;;12.96;100.00;101658.34;4980188;28;20063;-78
2023/05/28 00:44:42;;;;;;;14.80;5.22;;;;;;;12.88;100.00;101656.19;4960268;28;20043;-79
2023/05/28 00:47:08;;;;;;;9.73;4.40;;;;;;;12.90;100.00;101661.56;4980803;28;20047;-78
2023/05/28 00:49:34;;;;;;;13.10;4.18;;;;;;;12.86;100.00;101662.81;4997603;28;20154;-78
2023/05/28 00:52:01;;;;;;;14.50;4.78;;;;;;;12.88;100.00;101664.44;4964569;28;20131;-77
2023/05/28 00:54:27;;;;;;;13.35;4.35;;;;;;;12.78;100.00;101660.63;4988406;28;20066;-78
2023/05/28 00:56:54;;;;;;;12.35;4.47;;;;;;;12.84;100.00;101664.81;4977479;28;20025;-78
2023/05/28 00:59:21;;;;;;;11.20;4.70;;;;;;;12.79;100.00;101659.66;4979122;28;20033;-79
2023/05/28 01:01:47;;;;;;;11.10;4.68;;;;;;;12.80;100.00;101672.38;4979836;28;20027;-78
2023/05/28 01:04:13;;;;;;;10.35;4.50;;;;;;;12.80;100.00;101664.13;4957340;28;20103;-77
2023/05/28 01:06:39;;;;;;;13.40;4.70;;;;;;;12.70;100.00;101657.59;4979568;28;20619;-78
2023/05/28 01:09:08;;;;;;;10.50;4.47;;;;;;;12.78;100.00;101657.88;4979130;28;20046;-78
2023/05/28 01:11:35;;;;;;;16.42;4.80;;;;;;;12.90;100.00;101645.06;4980930;28;20033;-77
2023/05/28 01:14:02;;;;;;;12.07;4.85;;;;;;;12.76;100.00;101637.03;4996381;28;20045;-78
2023/05/28 01:16:28;;;;;;;18.63;4.95;;;;;;;12.72;100.00;101646.47;4977331;28;20058;-78
2023/05/28 01:18:57;;;;;;;8.82;4.25;;;;;;;12.62;100.00;101646.31;4996162;28;20019;-77
2023/05/28 01:21:25;;;;;;;14.85;5.10;;;;;;;12.45;100.00;101636.59;4991514;28;20078;-78
2023/05/28 01:23:52;;;;;;;7.90;4.03;;;;;;;12.50;100.00;101653.59;4964271;28;20051;-78
2023/05/28 01:37:09;;;;;;;14.37;6.30;;;;;;;12.49;100.00;101655.47;6140443;22;1279462;-78
2023/05/28 01:39:43;;;;;;;14.07;5.95;;;;;;;12.56;100.00;101655.91;6214878;23;20013;-78
2023/05/28 01:42:08;;;;;;;18.40;5.82;;;;;;;12.58;100.00;101670.38;6190732;23;19996;-79
2023/05/28 01:44:35;;;;;;;13.02;5.45;;;;;;;12.62;100.00;101660.03;6189995;23;19997;-79
2023/05/28 01:47:01;;;;;;;14.98;5.82;;;;;;;12.58;100.00;101656.66;6190845;23;19997;-78
2023/05/28 01:49:27;;;;;;;16.63;5.45;;;;;;;12.56;100.00;101665.97;6140532;23;20005;-77
2023/05/28 01:51:52;;;;;;;14.93;5.78;;;;;;;12.54;100.00;101666.09;6214079;23;20009;-78
2023/05/28 01:54:20;;;;;;;10.80;5.10;;;;;;;12.57;100.00;101660.38;6165362;23;20002;-79
2023/05/28 01:56:45;;;;;;;14.98;5.82;;;;;;;12.54;100.00;101666.09;6190266;23;20002;-79
2023/05/28 01:59:11;;;;;;;19.77;6.05;;;;;;;12.60;100.00;101678.50;6189908;23;20008;-78
2023/05/28 02:01:37;;;;;;;13.25;5.88;;;;;;;12.61;100.00;101675.66;6189693;23;19997;-78
2023/05/28 02:04:02;;;;;;;14.70;5.40;;;;;;;12.51;100.00;101674.59;6164482;23;20037;-79
2023/05/28 02:06:31;;;;;;;15.45;5.78;;;;;;;12.42;100.00;101659.66;6190409;23;20005;-77
2023/05/28 02:08:57;;;;;;;44.58;6.43;;;;;;;12.42;100.00;101667.88;6164452;23;20002;-77
2023/05/28 02:11:22;;;;;;;15.48;5.63;;;;;;;12.36;100.00;101670.22;6190608;23;20021;-79
2023/05/28 02:13:48;;;;;;;9.88;5.05;;;;;;;12.36;100.00;101667.47;6188818;23;19997;-79
2023/05/28 02:16:17;;;;;;;13.73;5.35;;;;;;;12.33;100.00;101674.09;6190105;23;20077;-79
2023/05/28 02:18:44;;;;;;;12.57;5.10;;;;;;;12.29;100.00;101670.66;6190507;23;20032;-77
2023/05/28 02:21:10;;;;;;;9.57;5.05;;;;;;;12.30;100.00;101666.06;6191324;23;20001;-77
2023/05/28 02:23:38;;;;;;;15.38;5.63;;;;;;;12.24;100.00;101669.25;6190523;23;20033;-77
2023/05/28 02:26:03;;;;;;;16.08;5.60;;;;;;;12.20;100.00;101664.97;6164118;23;20027;-77
2023/05/28 02:28:29;;;;;;;13.40;5.78;;;;;;;12.19;100.00;101660.47;6164881;23;20001;-76
2023/05/28 02:30:55;;;;;;;13.07;6.05;;;;;;;12.14;100.00;101656.19;6215098;23;20005;-78
2023/05/28 02:33:21;;;;;;;10.75;5.97;;;;;;;12.09;100.00;101658.41;6190241;23;19997;-77
2023/05/28 02:35:47;;;;;;;13.10;6.00;;;;;;;12.05;100.00;101645.91;6213776;23;19997;-79
2023/05/28 02:38:12;;;;;;;15.23;5.93;;;;;;;12.05;100.00;101651.38;6158030;23;20017;-78
2023/05/28 02:40:38;;;;;;;11.18;5.68;;;;;;;12.04;100.00;101644.13;6183800;23;19994;-77
2023/05/28 02:43:03;;;;;;;15.13;5.93;;;;;;;12.01;100.00;101647.09;6158939;23;20014;-77
2023/05/28 02:45:29;;;;;;;20.10;5.72;;;;;;;12.03;100.00;101641.50;6182351;23;20021;-77
2023/05/28 02:47:54;;;;;;;17.02;6.30;;;;;;;12.01;100.00;101636.13;6157983;23;20008;-76
2023/05/28 02:50:20;;;;;;;17.77;5.97;;;;;;;11.96;100.00;101630.09;6181285;23;20013;-77
2023/05/28 02:52:45;;;;;;;10.02;5.47;;;;;;;11.98;100.00;101635.47;6181016;23;20053;-76
2023/05/28 02:55:11;;;;;;;10.57;5.55;;;;;;;11.97;100.00;101634.59;6180639;23;20001;-75
2023/05/28 02:57:36;;;;;;;12.35;5.47;;;;;;;11.94;100.00;101641.16;6205524;23;20098;-76
2023/05/28 03:00:02;;;;;;;12.18;5.47;;;;;;;11.92;100.00;101629.44;6156840;23;20005;-77
2023/05/28 03:02:27;;;;;;;15.55;5.80;;;;;;;11.80;100.00;101632.16;6156058;23;20024;-77
2023/05/28 03:04:53;;;;;;;13.05;5.90;;;;;;;11.74;100.00;101638.94;6131506;23;20010;-76
2023/05/28 03:07:18;;;;;;;10.88;5.88;;;;;;;11.69;100.00;101646.63;6156668;23;20037;-76
2023/05/28 03:09:44;;;;;;;14.98;6.30;;;;;;;11.60;100.00;101637.19;6156676;23;20041;-77
2023/05/28 03:12:10;;;;;;;18.00;6.55;;;;;;;11.64;100.00;101657.06;6182128;23;20006;-76
2023/05/28 03:14:35;;;;;;;14.35;6.03;;;;;;;11.59;100.00;101646.41;6205638;23;20044;-77
2023/05/28 03:17:01;;;;;;;14.40;5.93;;;;;;;11.55;100.00;101653.09;6205888;23;20038;-77
2023/05/28 03:19:26;;;;;;;15.52;6.22;;;;;;;11.52;100.00;101648.69;6181713;23;19993;-76
2023/05/28 03:21:52;;;;;;;11.05;5.30;;;;;;;11.54;100.00;101654.06;6157495;23;20017;-76
2023/05/28 03:24:17;;;;;;;11.05;5.32;;;;;;;11.49;100.00;101643.44;6181631;23;20010;-76
2023/05/28 03:26:43;;;;;;;13.60;5.70;;;;;;;11.51;100.00;101673.47;6182218;23;20032;-77
2023/05/28 03:29:09;;;;;;;12.32;6.00;;;;;;;11.34;100.00;101630.81;6180999;23;20013;-77
2023/05/28 03:31:46;;;;;;;12.68;5.32;;;;;;;11.46;100.00;101656.47;6180594;23;20085;-76
2023/05/28 03:34:12;;;;;;;10.48;5.60;;;;;;;11.38;100.00;101657.03;6157035;23;20019;-78
2023/05/28 03:36:40;;;;;;;15.77;6.60;;;;;;;11.36;100.00;101661.72;6181188;23;19998;-76
2023/05/28 03:39:10;;;;;;;15.27;5.65;;;;;;;11.39;100.00;101661.50;6131938;23;20006;-75
2023/05/28 03:41:38;;;;;;;14.07;5.63;;;;;;;11.35;100.00;101657.25;6181937;23;19998;-77
2023/05/28 03:44:05;;;;;;;12.88;5.60;;;;;;;11.33;100.00;101657.34;6182268;23;20018;-76
2023/05/28 03:46:30;;;;;;;14.00;5.88;;;;;;;11.35;100.00;101660.84;6179836;23;20028;-77
2023/05/28 03:48:56;;;;;;;15.90;5.47;;;;;;;11.37;100.00;101658.88;6181601;23;19997;-77
2023/05/28 03:51:23;;;;;;;13.45;6.15;;;;;;;11.35;100.00;101663.59;6157448;23;20004;-78
2023/05/28 03:53:49;;;;;;;13.75;5.80;;;;;;;11.34;100.00;101664.56;6181870;23;20090;-77
2023/05/28 03:56:15;;;;;;;14.52;5.82;;;;;;;11.43;100.00;101662.19;6182482;23;20009;-77
2023/05/28 03:58:40;;;;;;;13.30;5.93;;;;;;;11.37;100.00;101667.09;6156886;23;20028;-76
2023/05/28 04:01:05;;;;;;;14.63;5.85;;;;;;;11.36;100.00;101658.97;6182954;23;20008;-77
2023/05/28 04:03:31;;;;;;;16.00;5.63;;;;;;;11.39;100.00;101664.25;6181603;23;20009;-78
2023/05/28 04:05:56;;;;;;;17.00;6.03;;;;;;;11.44;100.00;101672.16;6181871;23;20045;-77
2023/05/28 04:08:22;;;;;;;13.98;6.35;;;;;;;11.40;100.00;101664.16;6182338;23;20008;-78
2023/05/28 04:10:47;;;;;;;13.13;5.82;;;;;;;11.40;100.00;101666.91;6183290;23;19998;-78
2023/05/28 04:13:12;;;;;;;14.50;5.90;;;;;;;11.39;100.00;101664.25;6133357;23;20009;-78
2023/05/28 04:15:38;;;;;;;18.63;7.75;;;;;;;11.40;100.00;101666.03;6155246;23;20012;-78
2023/05/28 04:18:03;;;;;;;15.38;5.90;;;;;;;11.39;100.00;101659.66;6181059;23;20005;-78
2023/05/28 04:20:29;;;;;;;12.50;5.97;;;;;;;11.31;100.00;101645.59;6206690;23;20013;-78
2023/05/28 04:22:54;;;;;;;19.08;6.65;;;;;;;11.44;100.00;101663.94;6181408;23;20001;-77
2023/05/28 04:25:20;;;;;;;14.77;5.90;;;;;;;11.47;100.00;101670.09;6182184;23;20001;-77
2023/05/28 04:27:46;;;;;;;15.43;5.78;;;;;;;11.50;100.00;101679.97;6206130;23;20017;-76
2023/05/28 04:30:12;;;;;;;15.32;5.85;;;;;;;11.48;100.00;101674.59;6181476;23;20021;-77
2023/05/28 04:32:41;;;;;;;15.77;6.47;;;;;;;11.63;100.00;101685.50;6180962;23;20069;-76
2023/05/28 04:35:11;;;;;;;11.75;6.13;;;;;;;11.62;100.00;101681.84;6181754;23;20009;-77
2023/05/28 04:37:39;;;;;;;15.50;5.78;;;;;;;11.69;100.00;101676.81;6181622;23;20028;-78
2023/05/28 04:40:07;;;;;;;14.95;5.63;;;;;;;11.68;100.00;101675.06;6156821;23;19997;-78
2023/05/28 04:42:33;;;;;;;18.55;6.00;;;;;;;11.71;100.00;101675.72;6181642;23;20004;-77
2023/05/28 04:44:58;;;;;;;12.55;5.78;;;;;;;11.75;100.00;101679.13;6181623;23;20025;-75
2023/05/28 04:47:24;;;;;;;19.60;6.25;;;;;;;11.79;100.00;101675.19;6180546;23;19994;-78
2023/05/28 04:49:49;;;;;;;20.27;6.25;;;;;;;11.83;100.00;101681.31;6179763;23;19998;-76
2023/05/28 04:52:16;;;;;;;15.20;6.43;;;;;;;12.03;100.00;101682.66;6180135;23;20017;-77
2023/05/28 04:54:44;;;;;;;15.13;5.47;;;;;;;11.97;100.00;101680.34;6182468;23;20001;-76
2023/05/28 04:57:10;;;;;;;14.98;6.05;;;;;;;11.99;100.00;101679.28;6181674;23;20033;-78
2023/05/28 04:59:35;;;;;;;16.42;6.35;;;;;;;12.02;100.00;101684.53;6156815;23;20024;-78
2023/05/28 05:02:01;;;;;;;16.13;5.85;;;;;;;12.12;100.00;101682.88;6178420;23;19997;-78
2023/05/28 05:04:26;;;;;;;17.20;6.07;;;;;;;12.18;100.00;101677.94;6178767;23;20025;-79
2023/05/28 05:06:52;;;;;;;14.57;5.70;;;;;;;12.24;100.00;101689.34;6156928;23;20013;-78
2023/05/28 05:09:19;;;;;;;18.85;6.55;;;;;;;12.36;100.00;101693.06;6181066;23;20001;-78
2023/05/28 05:11:45;;;;;;;11.93;6.20;;;;;;;12.40;100.00;101694.59;6181627;23;20033;-76
2023/05/28 05:14:10;;;;;;;13.45;5.95;;;;;;;12.47;100.00;101687.66;6182047;23;20024;-77
2023/05/28 05:16:36;;;;;;;18.33;6.55;;;;;;;12.57;100.00;101696.09;6181439;23;20053;-78
2023/05/28 05:19:02;;;;;;;14.50;6.10;;;;;;;12.66;100.00;101697.28;6191594;23;20024;-79
2023/05/28 05:21:28;;;;;;;12.60;5.93;;;;;;;12.68;100.00;101701.66;6151282;23;20010;-79
2023/05/28 05:23:53;;;;;;;15.85;6.40;;;;;;;12.84;100.00;101697.78;6178661;23;20028;-80
2023/05/28 05:26:19;;;;;;;12.65;6.72;;;;;;;12.98;100.00;101705.84;6186080;23;19993;-81
2023/05/28 05:28:45;;;;;;;18.35;6.20;;;;;;;13.25;100.00;101691.00;6155139;23;19997;-81
2023/05/28 05:41:32;;;;;;;16.88;5.60;;;;;;;14.47;100.00;101682.22;6166956;23;20031;-82
2023/05/28 05:43:58;;;;;;;11.60;5.47;;;;;;;14.91;100.00;101686.97;6156326;23;20021;-83
2023/05/28 05:46:23;;;;;;;11.30;5.82;;;;;;;15.01;100.00;101696.19;6158443;23;20013;-83
2023/05/28 05:48:49;;;;;;;13.38;4.90;;;;;;;15.28;100.00;101709.50;6129533;23;20044;-83
2023/05/28 05:51:18;;;;;;;14.90;5.93;;;;;;;15.62;100.00;101713.00;6185849;23;20073;-83
2023/05/28 05:53:44;;;;;;;12.95;5.43;;;;;;;15.86;100.00;101717.44;6137242;23;20445;-83
2023/05/28 05:56:10;;;;;;;17.63;6.28;;;;;;;16.05;100.00;101718.56;6138296;23;20017;-81
2023/05/28 05:58:36;;;;;;;14.98;5.75;;;;;;;16.03;100.00;101723.34;6159902;23;20013;-80
2023/05/28 06:01:02;;;;;;;14.85;5.57;;;;;;;16.29;100.00;101705.31;6180631;23;20322;-81
2023/05/28 06:03:28;;;;;;;12.93;5.97;;;;;;;16.56;100.00;101719.53;6173771;23;20096;-84
2023/05/28 06:05:53;;;;;;;14.20;5.95;;;;;;;17.26;100.00;101723.25;6140679;23;20097;-82
2023/05/28 06:08:19;;;;;;;19.00;5.50;;;;;;;17.29;100.00;101727.63;6143012;23;20089;-81
2023/05/28 06:10:47;;;;;;;13.27;5.55;;;;;;;17.43;99.99;101717.00;6142984;23;20020;-82
2023/05/28 06:13:13;;;;;;;16.17;5.28;;;;;;;17.06;100.00;101727.88;6171857;23;20028;-82
2023/05/28 06:15:39;;;;;;;10.63;5.65;;;;;;;17.26;100.00;101724.13;6174027;23;20037;-81
2023/05/28 06:18:05;;;;;;;13.65;6.07;;;;;;;17.95;97.07;101719.47;6182811;23;20021;-83
2023/05/28 06:20:30;;;;;;;13.40;5.55;;;;;;;17.79;96.70;101722.81;6136371;23;20032;-84
2023/05/28 06:22:56;;;;;;;9.63;5.55;;;;;;;18.00;97.40;101725.47;6120984;23;20037;-82
2023/05/28 06:25:22;;;;;;;14.80;5.38;;;;;;;18.41;92.81;101719.63;6102960;23;20028;-80
2023/05/28 06:27:49;;;;;;;13.50;6.50;;;;;;;18.31;93.72;101719.66;6124575;23;20018;-83
2023/05/28 06:30:14;;;;;;;13.93;5.63;;;;;;;18.90;88.45;101727.75;6121789;23;19990;-84
2023/05/28 06:32:41;;;;;;;10.80;5.65;;;;;;;18.71;87.54;101687.97;6057856;23;20540;-82
2023/05/28 06:35:08;;;;;;;12.15;5.15;;;;;;;18.93;87.45;101710.81;6153517;23;20017;-86
2023/05/28 06:37:33;;;;;;;15.32;5.65;;;;;;;18.61;90.33;101714.91;6136672;23;20032;-81
2023/05/28 06:40:06;;;;;;;17.13;5.53;;;;;;;19.10;87.30;101711.84;6122272;23;20014;-81
2023/05/28 06:42:31;;;;;;;13.35;5.50;;;;;;;19.33;85.97;101714.19;6149765;23;19998;-83
2023/05/28 06:44:59;;;;;;;12.40;5.00;;;;;;;19.45;85.89;101719.34;6175870;23;20029;-83
2023/05/28 06:47:25;;;;;;;15.25;4.90;;;;;;;20.05;80.96;101730.81;6126836;23;20006;-83
2023/05/28 06:49:51;;;;;;;10.63;4.07;;;;;;;20.09;78.12;101729.47;6148794;23;20014;-81
2023/05/28 06:52:16;;;;;;;11.70;4.57;;;;;;;20.26;76.46;101728.53;6148848;23;19990;-82
2023/05/28 06:54:45;;;;;;;10.88;4.78;;;;;;;20.02;79.08;101727.34;6151015;23;20037;-85
2023/05/28 06:57:10;;;;;;;10.90;4.63;;;;;;;20.57;76.15;101717.75;6123106;23;20110;-83
2023/05/28 06:59:36;;;;;;;17.48;5.32;;;;;;;20.30;76.89;101723.50;6123007;23;20018;-78
2023/05/28 07:02:01;;;;;;;7.50;4.15;;;;;;;21.05;70.87;101726.53;6122506;23;20016;-90
2023/05/28 07:04:28;;;;;;;11.38;4.75;;;;;;;21.48;73.70;101726.50;6123252;23;20014;-88
2023/05/28 07:06:53;;;;;;;9.10;3.88;;;;;;;21.30;70.21;101716.31;6087355;23;20077;-87
2023/05/28 07:09:19;;;;;;;8.32;3.80;;;;;;;21.21;70.91;101722.03;6104405;23;20500;-87
2023/05/28 07:11:44;;;;;;;8.23;3.92;;;;;;;22.08;66.92;101724.41;6136697;23;20017;-86
2023/05/28 07:14:10;;;;;;;12.18;4.07;;;;;;;21.66;66.68;101730.00;6114155;23;20013;-84
2023/05/28 07:16:35;;;;;;;12.50;4.20;;;;;;;21.78;65.25;101721.28;6136751;23;20378;-84
2023/05/28 07:19:01;;;;;;;7.93;3.50;;;;;;;22.46;61.62;101719.13;6085661;23;20010;-81
2023/05/28 07:21:26;;;;;;;8.80;3.53;;;;;;;22.90;61.29;101730.63;6150802;23;20017;-80
2023/05/28 07:23:52;;;;;;;9.57;4.03;;;;;;;22.89;60.00;101728.91;6126048;23;20013;-81
2023/05/28 07:26:17;;;;;;;8.80;3.85;;;;;;;22.93;62.26;101733.06;6102555;23;20446;-81
2023/05/28 07:28:43;;;;;;;11.38;4.38;;;;;;;23.29;60.07;101738.16;6077078;23;20089;-80
2023/05/28 07:31:08;;;;;;;12.77;4.25;;;;;;;23.30;59.29;101736.22;6102624;23;20022;-81
2023/05/28 07:33:35;;;;;;;11.98;3.97;;;;;;;23.44;57.35;101738.22;6149416;23;20081;-80
2023/05/28 07:36:00;;;;;;;9.43;4.07;;;;;;;23.23;58.02;101736.06;6127748;23;20005;-81
2023/05/28 07:38:26;;;;;;;8.88;3.75;;;;;;;23.26;55.78;101743.25;6131946;23;20032;-79
2023/05/28 07:40:51;;;;;;;9.13;3.63;;;;;;;22.90;58.25;101730.63;6144223;23;20045;-83
2023/05/28 07:43:16;;;;;;;9.10;3.90;;;;;;;23.43;56.37;101732.81;6165622;23;20016;-79
2023/05/28 07:45:45;;;;;;;10.25;3.17;;;;;;;23.16;58.01;101737.88;6118458;23;20029;-79
2023/05/28 07:48:10;;;;;;;12.95;3.70;;;;;;;23.34;55.55;101739.53;6143641;23;20014;-79
2023/05/28 07:50:36;;;;;;;7.40;3.35;;;;;;;23.26;55.15;101732.91;6148893;23;20021;-80
2023/05/28 07:53:01;;;;;;;13.85;3.50;;;;;;;23.57;54.84;101720.84;6127576;23;20017;-80
2023/05/28 07:55:27;;;;;;;7.03;3.42;;;;;;;23.70;56.04;101725.81;6147909;23;20041;-81
2023/05/28 07:57:53;;;;;;;9.35;3.20;;;;;;;23.99;56.05;101725.06;6100858;23;20014;-79
2023/05/28 08:00:19;;;;;;;11.52;3.10;;;;;;;24.16;54.04;101714.59;6101505;23;20001;-82
2023/05/28 08:02:45;;;;;;;8.90;3.22;;;;;;;24.75;53.11;101730.56;6126652;23;20002;-83
2023/05/28 08:05:11;;;;;;;13.20;3.33;;;;;;;24.55;51.77;101729.41;6128252;23;20018;-82
2023/05/28 08:07:37;;;;;;;12.38;3.45;;;;;;;24.70;51.10;101719.09;6117346;23;20022;-80
2023/05/28 08:10:03;;;;;;;8.48;3.10;;;;;;;25.23;48.21;101734.84;6143761;23;20006;-82
2023/05/28 08:12:29;;;;;;;7.75;2.55;;;;;;;24.33;50.04;101717.22;6146063;23;20311;-80
2023/05/28 08:14:54;;;;;;;12.18;3.40;;;;;;;24.60;51.23;101726.91;6122286;23;20005;-79
2023/05/28 08:17:22;;;;;;;8.65;3.00;;;;;;;24.96;50.31;101728.94;6095343;23;20016;-80
2023/05/28 08:19:47;;;;;;;18.25;3.97;;;;;;;25.20;48.41;101732.44;6088206;23;20018;-80
2023/05/28 08:22:13;;;;;;;8.50;3.42;;;;;;;24.49;48.49;101721.75;6106237;23;20014;-82
2023/05/28 08:24:38;;;;;;;9.55;2.90;;;;;;;24.07;50.91;101721.34;6132421;23;20394;-81
2023/05/28 08:27:05;;;;;;;12.13;3.65;;;;;;;23.78;52.54;101728.53;6105114;23;20010;-80
2023/05/28 08:29:30;;;;;;;9.27;3.25;;;;;;;24.24;50.99;101722.03;6100936;23;20010;-79
2023/05/28 08:31:57;;;;;;;6.55;2.88;;;;;;;23.95;51.27;101717.25;6101488;23;20025;-80
2023/05/28 08:34:23;;;;;;;9.05;3.03;;;;;;;24.57;50.81;101716.97;6098352;23;20018;-79
2023/05/28 08:36:49;;;;;;;10.07;3.22;;;;;;;24.90;50.74;101721.28;6134030;23;20021;-82
2023/05/28 08:39:14;;;;;;;10.07;3.22;;;;;;;25.51;47.00;101720.97;6154848;23;20100;-80
2023/05/28 08:41:40;;;;;;;6.53;2.80;;;;;;;25.44;46.46;101709.69;6130760;23;20013;-80
2023/05/28 08:44:05;;;;;;;12.32;3.38;;;;;;;25.24;46.09;101719.78;6130213;23;20037;-80
2023/05/28 08:46:32;;;;;;;6.20;2.75;;;;;;;25.36;47.30;101714.56;6105590;23;20017;-79
2023/05/28 08:48:58;;;;;;;12.32;3.45;;;;;;;25.45;46.75;101714.22;6106017;23;20462;-79
2023/05/28 08:51:26;;;;;;;12.27;2.88;;;;;;;25.40;47.93;101710.28;6130845;23;20334;-77
2023/05/28 08:53:53;;;;;;;8.18;2.95;;;;;;;25.56;46.75;101707.19;6103935;23;20088;-78
2023/05/28 08:56:20;;;;;;;7.07;2.92;;;;;;;25.99;43.94;101717.56;6126995;23;20020;-78
2023/05/28 08:58:47;;;;;;;8.82;2.80;;;;;;;25.88;45.58;101706.88;6101765;23;20040;-79
2023/05/28 09:01:12;;;;;;;8.75;3.22;;;;;;;25.77;45.09;101706.34;6128659;23;20059;-78
2023/05/28 09:03:40;;;;;;;8.73;3.25;;;;;;;25.94;43.18;101690.09;6152743;23;20438;-80
2023/05/28 09:06:06;;;;;;;9.60;3.10;;;;;;;26.63;43.39;101704.41;6127912;23;20405;-79
2023/05/28 09:08:32;;;;;;;9.43;2.80;;;;;;;26.47;44.20;101694.41;6128734;23;20093;-79
2023/05/28 09:11:08;;;;;;;8.13;3.10;;;;;;;26.70;41.74;101694.13;6152747;23;20040;-79
2023/05/28 09:13:33;;;;;;;7.50;2.78;;;;;;;26.41;41.01;101696.94;6128092;23;20020;-81
2023/05/28 09:16:01;;;;;;;7.95;2.65;;;;;;;26.46;42.20;101687.88;6128912;23;20311;-78
2023/05/28 09:18:27;;;;;;;6.95;2.80;;;;;;;26.78;41.93;101686.38;6152569;23;20020;-79
2023/05/28 09:21:10;;;;;;;8.57;3.05;;;;;;;26.65;39.37;101685.47;6128453;23;20006;-79
2023/05/28 09:23:37;;;;;;;5.88;2.70;;;;;;;26.71;39.07;101693.91;6101525;23;20006;-79
2023/05/28 09:26:08;;;;;;;8.98;3.05;;;;;;;25.83;40.96;101699.91;6127129;23;20039;-78
2023/05/28 09:28:34;;;;;;;7.25;3.10;;;;;;;25.71;41.90;101693.13;6126406;23;20014;-78
2023/05/28 09:31:04;;;;;;;7.75;3.00;;;;;;;25.35;43.35;101684.75;6152258;23;20088;-78
2023/05/28 09:33:30;;;;;;;8.23;3.20;;;;;;;25.95;42.43;101691.81;6153627;23;20590;-78
2023/05/28 09:36:02;;;;;;;9.32;2.53;;;;;;;24.54;44.42;101686.50;6126954;23;20164;-77
2023/05/28 09:38:41;;;;;;;;;;;;;;;24.52;42.71;101694.25;6128727;23;20464;-77
2023/05/28 09:41:33;;;;;;;7.72;3.00;;;;;;;24.67;46.17;101688.66;6127942;23;19911;-77
2023/05/28 09:44:00;;;;;;;5.03;2.88;;;;;;;24.66;43.45;101691.66;6128344;23;20013;-78
2023/05/28 09:46:30;;;;;;;20.08;3.20;;;;;;;25.49;43.48;101692.25;6128311;23;20017;-77
2023/05/28 09:48:57;;;;;;;11.23;3.22;;;;;;;25.54;46.60;101684.09;6105988;23;20022;-78
2023/05/28 09:51:31;;;;;;;7.80;3.38;;;;;;;25.62;46.57;101697.13;6153817;23;20009;-77
2023/05/28 09:54:02;;;;;;;13.57;3.75;;;;;;;25.52;48.13;101688.19;6156197;23;20425;-78
2023/05/28 09:56:30;;;;;;;9.68;3.53;;;;;;;25.52;47.80;101683.44;6130639;23;20315;-79
2023/05/28 09:59:06;;;;;;;7.07;2.70;;;;;;;26.37;45.24;101686.34;6130828;23;20010;-79
2023/05/28 10:01:40;;;;;;;6.95;3.10;;;;;;;26.20;43.21;101682.97;6128901;23;20065;-78
2023/05/28 10:04:08;;;;;;;9.82;3.55;;;;;;;25.78;45.50;101685.63;6128636;23;20013;-77
2023/05/28 10:06:35;;;;;;;7.82;3.45;;;;;;;25.73;46.31;101698.50;6129636;23;20491;-77
2023/05/28 10:09:04;;;;;;;13.23;2.97;;;;;;;26.16;43.90;101695.69;6130969;23;20010;-77
2023/05/28 10:11:34;;;;;;;8.10;2.88;;;;;;;26.09;40.74;101687.22;6130049;23;20452;-77
2023/05/28 10:14:00;;;;;;;9.05;3.63;;;;;;;26.19;43.84;101682.09;6104805;23;20016;-77
2023/05/28 10:16:26;;;;;;;8.32;2.90;;;;;;;25.97;42.93;101677.59;6127920;23;20382;-79
2023/05/28 10:18:53;;;;;;;9.98;3.00;;;;;;;26.59;40.43;101684.28;6103677;23;20040;-78
2023/05/28 10:21:19;;;;;;;8.00;2.60;;;;;;;26.21;40.46;101691.19;6129564;23;20109;-78
2023/05/28 10:23:46;;;;;;;8.60;3.05;;;;;;;26.43;41.26;101691.09;6129735;23;20426;-78
2023/05/28 10:26:14;;;;;;;6.55;3.10;;;;;;;26.36;38.59;101698.63;6129613;23;20418;-82
2023/05/28 10:28:40;;;;;;;4.80;2.75;;;;;;;25.82;39.40;101691.69;6127378;23;20446;-80
2023/05/28 10:31:10;;;;;;;4.35;2.60;;;;;;;26.26;41.02;101679.34;6154217;23;20026;-81
2023/05/28 10:33:44;;;;;;;12.75;3.25;;;;;;;26.78;37.91;101680.75;6104369;23;20765;-80
2023/05/28 10:36:12;;;;;;;5.70;2.65;;;;;;;26.41;40.50;101673.59;6130152;23;20064;-78
2023/05/28 10:39:05;;;;;;;7.53;3.00;;;;;;;25.90;41.03;101680.34;6155785;23;20005;-80
2023/05/28 10:41:33;;;;;;;10.60;3.92;;;;;;;26.08;39.62;101677.06;6155202;23;20013;-81
2023/05/28 10:44:06;;;;;;;7.57;3.13;;;;;;;25.53;41.68;101675.88;6130455;23;20017;-78
2023/05/28 10:46:39;;;;;;;6.93;2.72;;;;;;;25.85;40.46;101694.09;6129296;23;20006;-78
2023/05/28 10:49:14;;;;;;;8.23;2.92;;;;;;;25.29;39.98;101698.53;6155309;23;20012;-79
2023/05/28 10:51:44;;;;;;;10.93;2.95;;;;;;;25.53;38.12;101693.59;6105180;23;20060;-79
2023/05/28 10:54:24;;;;;;;6.45;2.63;;;;;;;25.39;40.16;101701.00;6130091;23;20025;-78
2023/05/28 10:57:15;;;;;;;9.73;2.90;;;;;;;26.36;37.35;101702.31;6155663;23;20094;-78
2023/05/28 10:59:44;;;;;;;10.77;3.20;;;;;;;25.83;40.15;101699.91;6153191;23;20009;-79
2023/05/28 11:02:11;;;;;;;14.75;3.25;;;;;;;25.48;40.51;101696.13;6154012;23;20397;-78
2023/05/28 11:04:36;;;;;;;7.90;3.00;;;;;;;25.28;40.47;101693.97;6152625;23;20437;-78
2023/05/28 11:07:03;;;;;;;8.93;2.97;;;;;;;25.69;40.42;101692.44;6129325;23;20013;-78
2023/05/28 11:09:28;;;;;;;9.55;3.00;;;;;;;26.07;40.61;101689.34;6127744;23;20016;-78
2023/05/28 11:11:59;;;;;;;6.68;2.38;;;;;;;26.73;40.43;101686.13;6154715;23;20009;-78
2023/05/28 11:14:30;;;;;;;5.72;3.00;;;;;;;25.79;40.70;101690.19;6129166;23;20833;-78
2023/05/28 11:16:55;;;;;;;5.50;2.55;;;;;;;26.18;39.70;101685.13;6104999;23;20338;-77
2023/05/28 11:19:20;;;;;;;10.65;2.90;;;;;;;25.88;38.94;101679.69;6155032;23;20093;-78
2023/05/28 11:21:53;;;;;;;8.20;3.35;;;;;;;25.73;41.11;101685.38;6127990;23;20342;-76
2023/05/28 11:24:19;;;;;;;6.30;2.95;;;;;;;26.23;40.79;101680.59;6152736;23;20016;-78
2023/05/28 11:26:44;;;;;;;7.18;3.13;;;;;;;26.73;38.98;101676.84;6127693;23;20013;-77
2023/05/28 11:29:12;;;;;;;8.02;2.80;;;;;;;26.58;40.70;101680.63;6128301;23;20021;-77
2023/05/28 11:31:40;;;;;;;9.02;2.90;;;;;;;26.87;38.76;101684.25;6128329;23;20009;-77
2023/05/28 11:34:05;;;;;;;9.32;3.10;;;;;;;26.23;42.53;101677.81;6128904;23;20013;-77
2023/05/28 11:36:37;;;;;;;14.07;3.08;;;;;;;26.62;41.37;101683.88;6125921;23;20013;-77